sensor_id;sensor_type;location;lat;lon;timestamp;temperature;humidity
680;DHT22;322;48.846;9.230;2023-11-18T00:00:21;5.00;99.90
680;DHT22;322;48.846;9.230;2023-11-18T00:02:49;5.00;99.90
680;DHT22;322;48.846;9.230;2023-11-18T00:05:17;4.90;99.90
680;DHT22;322;48.846;9.230;2023-11-18T00:07:45;5.00;99.90
680;DHT22;322;48.846;9.230;2023-11-18T00:10:15;5.00;99.90
680;DHT22;322;48.846;9.230;2023-11-18T00:12:43;5.00;99.90
680;DHT22;322;48.846;9.230;2023-11-18T00:15:11;5.00;99.90
680;DHT22;322;48.846;9.230;2023-11-18T00:17:42;4.90;99.90
680;DHT22;322;48.846;9.230;2023-11-18T00:20:10;4.90;99.90
680;DHT22;322;48.846;9.230;2023-11-18T00:22:40;5.00;99.90
680;DHT22;322;48.846;9.230;2023-11-18T00:25:09;5.00;99.90
680;DHT22;322;48.846;9.230;2023-11-18T00:27:39;5.10;99.90
680;DHT22;322;48.846;9.230;2023-11-18T00:30:07;5.10;99.90
680;DHT22;322;48.846;9.230;2023-11-18T00:32:37;5.00;99.90
680;DHT22;322;48.846;9.230;2023-11-18T00:35:07;5.00;99.90
680;DHT22;322;48.846;9.230;2023-11-18T00:37:37;4.90;99.90
680;DHT22;322;48.846;9.230;2023-11-18T00:40:06;5.00;99.90
680;DHT22;322;48.846;9.230;2023-11-18T00:42:35;4.90;99.90
680;DHT22;322;48.846;9.230;2023-11-18T00:45:05;5.00;99.90
680;DHT22;322;48.846;9.230;2023-11-18T00:47:34;5.10;99.90
680;DHT22;322;48.846;9.230;2023-11-18T00:50:02;5.10;99.90
680;DHT22;322;48.846;9.230;2023-11-18T00:52:36;5.10;99.90
680;DHT22;322;48.846;9.230;2023-11-18T00:55:06;5.30;99.90
680;DHT22;322;48.846;9.230;2023-11-18T00:57:34;5.30;99.90
680;DHT22;322;48.846;9.230;2023-11-18T01:00:10;5.50;99.90
680;DHT22;322;48.846;9.230;2023-11-18T01:02:40;5.50;99.90
680;DHT22;322;48.846;9.230;2023-11-18T01:05:09;5.50;99.90
680;DHT22;322;48.846;9.230;2023-11-18T01:07:38;5.50;99.90
680;DHT22;322;48.846;9.230;2023-11-18T01:10:07;5.50;99.90
680;DHT22;322;48.846;9.230;2023-11-18T01:12:36;5.40;99.90
680;DHT22;322;48.846;9.230;2023-11-18T01:15:07;5.50;99.90
680;DHT22;322;48.846;9.230;2023-11-18T01:17:37;5.50;99.90
680;DHT22;322;48.846;9.230;2023-11-18T01:20:06;5.40;99.90
680;DHT22;322;48.846;9.230;2023-11-18T01:22:38;5.40;99.90
680;DHT22;322;48.846;9.230;2023-11-18T01:25:07;5.50;99.90
680;DHT22;322;48.846;9.230;2023-11-18T01:27:35;5.60;99.90
680;DHT22;322;48.846;9.230;2023-11-18T01:30:05;5.60;99.90
680;DHT22;322;48.846;9.230;2023-11-18T01:32:34;5.50;99.90
680;DHT22;322;48.846;9.230;2023-11-18T01:35:03;5.60;99.90
680;DHT22;322;48.846;9.230;2023-11-18T01:37:31;5.50;99.90
680;DHT22;322;48.846;9.230;2023-11-18T01:39:59;5.40;99.90
680;DHT22;322;48.846;9.230;2023-11-18T01:42:31;5.30;99.90
680;DHT22;322;48.846;9.230;2023-11-18T01:44:59;5.40;99.90
680;DHT22;322;48.846;9.230;2023-11-18T01:47:31;5.50;99.90
680;DHT22;322;48.846;9.230;2023-11-18T01:50:02;5.60;99.90
680;DHT22;322;48.846;9.230;2023-11-18T01:52:33;5.70;99.90
680;DHT22;322;48.846;9.230;2023-11-18T01:55:01;5.70;99.90
680;DHT22;322;48.846;9.230;2023-11-18T01:57:33;5.60;99.90
680;DHT22;322;48.846;9.230;2023-11-18T02:00:01;5.60;99.90
680;DHT22;322;48.846;9.230;2023-11-18T02:02:33;5.70;99.90
680;DHT22;322;48.846;9.230;2023-11-18T02:05:06;5.60;99.90
680;DHT22;322;48.846;9.230;2023-11-18T02:07:34;5.50;99.90
680;DHT22;322;48.846;9.230;2023-11-18T02:10:04;5.50;99.90
680;DHT22;322;48.846;9.230;2023-11-18T02:12:40;5.70;99.90
680;DHT22;322;48.846;9.230;2023-11-18T02:15:10;5.80;99.90
680;DHT22;322;48.846;9.230;2023-11-18T02:17:41;5.90;99.90
680;DHT22;322;48.846;9.230;2023-11-18T02:20:12;5.80;99.90
680;DHT22;322;48.846;9.230;2023-11-18T02:22:43;5.70;99.90
680;DHT22;322;48.846;9.230;2023-11-18T02:25:15;5.70;99.90
680;DHT22;322;48.846;9.230;2023-11-18T02:27:46;5.70;99.90
680;DHT22;322;48.846;9.230;2023-11-18T02:30:14;5.60;99.90
680;DHT22;322;48.846;9.230;2023-11-18T02:32:47;5.60;99.90
680;DHT22;322;48.846;9.230;2023-11-18T02:35:23;5.60;99.90
680;DHT22;322;48.846;9.230;2023-11-18T02:37:54;5.60;99.90
680;DHT22;322;48.846;9.230;2023-11-18T02:40:27;5.50;99.90
680;DHT22;322;48.846;9.230;2023-11-18T02:43:00;5.40;99.90
680;DHT22;322;48.846;9.230;2023-11-18T02:45:28;5.30;99.90
680;DHT22;322;48.846;9.230;2023-11-18T02:47:58;5.30;99.90
680;DHT22;322;48.846;9.230;2023-11-18T02:50:27;5.30;99.90
680;DHT22;322;48.846;9.230;2023-11-18T02:52:56;5.10;99.90
680;DHT22;322;48.846;9.230;2023-11-18T02:55:24;5.00;99.90
680;DHT22;322;48.846;9.230;2023-11-18T02:57:52;4.90;99.90
680;DHT22;322;48.846;9.230;2023-11-18T03:00:22;4.90;99.90
680;DHT22;322;48.846;9.230;2023-11-18T03:02:50;4.90;99.90
680;DHT22;322;48.846;9.230;2023-11-18T03:05:20;4.90;99.90
680;DHT22;322;48.846;9.230;2023-11-18T03:07:48;4.70;99.90
680;DHT22;322;48.846;9.230;2023-11-18T03:10:18;4.60;99.90
680;DHT22;322;48.846;9.230;2023-11-18T03:12:49;4.50;99.90
680;DHT22;322;48.846;9.230;2023-11-18T03:15:17;4.40;99.90
680;DHT22;322;48.846;9.230;2023-11-18T03:17:48;4.40;99.90
680;DHT22;322;48.846;9.230;2023-11-18T03:20:17;4.50;99.90
680;DHT22;322;48.846;9.230;2023-11-18T03:22:46;4.50;99.90
680;DHT22;322;48.846;9.230;2023-11-18T03:25:15;4.60;99.90
680;DHT22;322;48.846;9.230;2023-11-18T03:27:43;4.80;99.90
680;DHT22;322;48.846;9.230;2023-11-18T03:30:12;4.90;99.90
680;DHT22;322;48.846;9.230;2023-11-18T03:32:40;4.90;99.90
680;DHT22;322;48.846;9.230;2023-11-18T03:35:10;4.70;99.90
680;DHT22;322;48.846;9.230;2023-11-18T03:37:38;4.70;99.90
680;DHT22;322;48.846;9.230;2023-11-18T03:40:09;4.60;99.90
680;DHT22;322;48.846;9.230;2023-11-18T03:42:38;4.50;99.90
680;DHT22;322;48.846;9.230;2023-11-18T03:45:07;4.40;99.90
680;DHT22;322;48.846;9.230;2023-11-18T03:47:37;4.40;99.90
680;DHT22;322;48.846;9.230;2023-11-18T03:50:06;4.30;99.90
680;DHT22;322;48.846;9.230;2023-11-18T03:52:37;4.30;99.90
680;DHT22;322;48.846;9.230;2023-11-18T03:55:06;4.30;99.90
680;DHT22;322;48.846;9.230;2023-11-18T03:57:34;4.40;99.90
680;DHT22;322;48.846;9.230;2023-11-18T04:00:03;4.40;99.90
680;DHT22;322;48.846;9.230;2023-11-18T04:02:31;4.40;99.90
680;DHT22;322;48.846;9.230;2023-11-18T04:05:01;4.50;99.90
680;DHT22;322;48.846;9.230;2023-11-18T04:07:30;4.50;99.90
680;DHT22;322;48.846;9.230;2023-11-18T04:10:00;4.50;99.90
680;DHT22;322;48.846;9.230;2023-11-18T04:12:27;4.60;99.90
680;DHT22;322;48.846;9.230;2023-11-18T04:14:57;4.60;99.90
680;DHT22;322;48.846;9.230;2023-11-18T04:17:24;4.50;99.90
680;DHT22;322;48.846;9.230;2023-11-18T04:19:54;4.50;99.90
680;DHT22;322;48.846;9.230;2023-11-18T04:22:23;4.40;99.90
680;DHT22;322;48.846;9.230;2023-11-18T04:24:51;4.40;99.90
680;DHT22;322;48.846;9.230;2023-11-18T04:27:20;4.20;99.90
680;DHT22;322;48.846;9.230;2023-11-18T04:29:49;4.20;99.90
680;DHT22;322;48.846;9.230;2023-11-18T04:32:17;4.20;99.90
680;DHT22;322;48.846;9.230;2023-11-18T04:34:46;4.20;99.90
680;DHT22;322;48.846;9.230;2023-11-18T04:37:16;4.10;99.90
680;DHT22;322;48.846;9.230;2023-11-18T04:39:44;4.30;99.90
680;DHT22;322;48.846;9.230;2023-11-18T04:42:13;4.30;99.90
680;DHT22;322;48.846;9.230;2023-11-18T04:44:43;4.30;99.90
680;DHT22;322;48.846;9.230;2023-11-18T04:47:11;4.30;99.90
680;DHT22;322;48.846;9.230;2023-11-18T04:49:39;4.40;99.90
680;DHT22;322;48.846;9.230;2023-11-18T04:52:07;4.50;99.90
680;DHT22;322;48.846;9.230;2023-11-18T04:54:35;4.60;99.90
680;DHT22;322;48.846;9.230;2023-11-18T04:57:04;4.50;99.90
680;DHT22;322;48.846;9.230;2023-11-18T04:59:32;4.60;99.90
680;DHT22;322;48.846;9.230;2023-11-18T05:02:01;4.60;99.90
680;DHT22;322;48.846;9.230;2023-11-18T05:04:30;4.70;99.90
680;DHT22;322;48.846;9.230;2023-11-18T05:06:58;4.70;99.90
680;DHT22;322;48.846;9.230;2023-11-18T05:09:26;4.70;99.90
680;DHT22;322;48.846;9.230;2023-11-18T05:11:53;4.70;99.90
680;DHT22;322;48.846;9.230;2023-11-18T05:14:21;4.70;99.90
680;DHT22;322;48.846;9.230;2023-11-18T05:16:49;4.50;99.90
680;DHT22;322;48.846;9.230;2023-11-18T05:19:19;4.50;99.90
680;DHT22;322;48.846;9.230;2023-11-18T05:21:47;4.50;99.90
680;DHT22;322;48.846;9.230;2023-11-18T05:24:16;4.40;99.90
680;DHT22;322;48.846;9.230;2023-11-18T05:26:44;4.20;99.90
680;DHT22;322;48.846;9.230;2023-11-18T05:29:12;4.10;99.90
680;DHT22;322;48.846;9.230;2023-11-18T05:31:43;4.10;99.90
680;DHT22;322;48.846;9.230;2023-11-18T05:34:12;4.00;99.90
680;DHT22;322;48.846;9.230;2023-11-18T05:36:41;4.00;99.90
680;DHT22;322;48.846;9.230;2023-11-18T05:39:09;4.00;99.90
680;DHT22;322;48.846;9.230;2023-11-18T05:41:37;3.90;99.90
680;DHT22;322;48.846;9.230;2023-11-18T05:44:07;3.80;99.90
680;DHT22;322;48.846;9.230;2023-11-18T05:46:43;3.70;99.90
680;DHT22;322;48.846;9.230;2023-11-18T05:49:13;3.70;99.90
680;DHT22;322;48.846;9.230;2023-11-18T05:51:43;3.70;99.90
680;DHT22;322;48.846;9.230;2023-11-18T05:54:11;3.70;99.90
680;DHT22;322;48.846;9.230;2023-11-18T05:56:39;3.70;99.90
680;DHT22;322;48.846;9.230;2023-11-18T05:59:07;3.60;99.90
680;DHT22;322;48.846;9.230;2023-11-18T06:01:35;3.50;99.90
680;DHT22;322;48.846;9.230;2023-11-18T06:04:04;3.40;99.90
680;DHT22;322;48.846;9.230;2023-11-18T06:06:35;3.50;99.90
680;DHT22;322;48.846;9.230;2023-11-18T06:09:05;3.30;99.90
680;DHT22;322;48.846;9.230;2023-11-18T06:11:36;3.20;99.90
680;DHT22;322;48.846;9.230;2023-11-18T06:14:05;3.30;99.90
680;DHT22;322;48.846;9.230;2023-11-18T06:16:35;3.20;99.90
680;DHT22;322;48.846;9.230;2023-11-18T06:19:08;3.40;99.90
680;DHT22;322;48.846;9.230;2023-11-18T06:21:36;3.30;99.90
680;DHT22;322;48.846;9.230;2023-11-18T06:24:06;3.20;99.90
680;DHT22;322;48.846;9.230;2023-11-18T06:26:37;3.20;99.90
680;DHT22;322;48.846;9.230;2023-11-18T06:29:05;3.20;99.90
680;DHT22;322;48.846;9.230;2023-11-18T06:31:33;3.10;99.90
680;DHT22;322;48.846;9.230;2023-11-18T06:34:01;3.10;99.90
680;DHT22;322;48.846;9.230;2023-11-18T06:36:30;3.10;99.90
680;DHT22;322;48.846;9.230;2023-11-18T06:38:58;3.10;99.90
680;DHT22;322;48.846;9.230;2023-11-18T06:41:27;3.10;99.90
680;DHT22;322;48.846;9.230;2023-11-18T06:44:01;3.20;99.90
680;DHT22;322;48.846;9.230;2023-11-18T06:46:36;3.10;99.90
680;DHT22;322;48.846;9.230;2023-11-18T06:49:07;3.20;99.90
680;DHT22;322;48.846;9.230;2023-11-18T06:51:38;3.30;99.90
680;DHT22;322;48.846;9.230;2023-11-18T06:54:09;3.30;99.90
680;DHT22;322;48.846;9.230;2023-11-18T06:56:40;3.20;99.90
680;DHT22;322;48.846;9.230;2023-11-18T06:59:10;3.10;99.90
680;DHT22;322;48.846;9.230;2023-11-18T07:01:39;3.10;99.90
680;DHT22;322;48.846;9.230;2023-11-18T07:04:09;3.30;99.90
680;DHT22;322;48.846;9.230;2023-11-18T07:06:38;3.30;99.90
680;DHT22;322;48.846;9.230;2023-11-18T07:09:07;3.40;99.90
680;DHT22;322;48.846;9.230;2023-11-18T07:11:42;3.50;99.90
680;DHT22;322;48.846;9.230;2023-11-18T07:14:11;3.50;99.90
680;DHT22;322;48.846;9.230;2023-11-18T07:16:40;3.60;99.90
680;DHT22;322;48.846;9.230;2023-11-18T07:19:08;3.60;99.90
680;DHT22;322;48.846;9.230;2023-11-18T07:21:41;3.70;99.90
680;DHT22;322;48.846;9.230;2023-11-18T07:24:09;3.80;99.90
680;DHT22;322;48.846;9.230;2023-11-18T07:26:38;3.90;99.90
680;DHT22;322;48.846;9.230;2023-11-18T07:29:07;4.00;99.90
680;DHT22;322;48.846;9.230;2023-11-18T07:31:35;4.20;99.90
680;DHT22;322;48.846;9.230;2023-11-18T07:34:04;4.30;99.90
680;DHT22;322;48.846;9.230;2023-11-18T07:36:32;4.30;99.90
680;DHT22;322;48.846;9.230;2023-11-18T07:39:00;4.50;99.90
680;DHT22;322;48.846;9.230;2023-11-18T07:41:31;4.60;99.90
680;DHT22;322;48.846;9.230;2023-11-18T07:44:00;4.60;99.90
680;DHT22;322;48.846;9.230;2023-11-18T07:46:30;4.70;99.90
680;DHT22;322;48.846;9.230;2023-11-18T07:48:59;4.80;99.90
680;DHT22;322;48.846;9.230;2023-11-18T07:51:28;4.90;99.90
680;DHT22;322;48.846;9.230;2023-11-18T07:53:56;4.90;99.90
680;DHT22;322;48.846;9.230;2023-11-18T07:56:25;5.10;99.90
680;DHT22;322;48.846;9.230;2023-11-18T07:58:53;5.30;99.90
680;DHT22;322;48.846;9.230;2023-11-18T08:01:22;5.50;99.90
680;DHT22;322;48.846;9.230;2023-11-18T08:03:51;5.50;99.90
680;DHT22;322;48.846;9.230;2023-11-18T08:06:20;5.60;99.90
680;DHT22;322;48.846;9.230;2023-11-18T08:08:48;5.70;99.90
680;DHT22;322;48.846;9.230;2023-11-18T08:11:16;5.70;99.90
680;DHT22;322;48.846;9.230;2023-11-18T08:13:44;5.80;99.90
680;DHT22;322;48.846;9.230;2023-11-18T08:16:12;5.90;99.90
680;DHT22;322;48.846;9.230;2023-11-18T08:18:41;6.10;99.90
680;DHT22;322;48.846;9.230;2023-11-18T08:21:10;6.20;99.90
680;DHT22;322;48.846;9.230;2023-11-18T08:23:39;6.30;99.90
680;DHT22;322;48.846;9.230;2023-11-18T08:26:08;6.30;99.90
680;DHT22;322;48.846;9.230;2023-11-18T08:28:39;6.50;99.90
680;DHT22;322;48.846;9.230;2023-11-18T08:31:07;6.60;99.90
680;DHT22;322;48.846;9.230;2023-11-18T08:33:36;6.70;99.90
680;DHT22;322;48.846;9.230;2023-11-18T08:36:04;6.80;99.90
680;DHT22;322;48.846;9.230;2023-11-18T08:38:35;6.90;99.90
680;DHT22;322;48.846;9.230;2023-11-18T08:41:04;6.80;99.90
680;DHT22;322;48.846;9.230;2023-11-18T08:43:35;6.90;99.90
680;DHT22;322;48.846;9.230;2023-11-18T08:46:03;6.90;99.90
680;DHT22;322;48.846;9.230;2023-11-18T08:48:33;7.00;99.90
680;DHT22;322;48.846;9.230;2023-11-18T08:51:01;7.10;99.90
680;DHT22;322;48.846;9.230;2023-11-18T08:53:29;7.20;99.90
680;DHT22;322;48.846;9.230;2023-11-18T08:56:05;7.20;99.90
680;DHT22;322;48.846;9.230;2023-11-18T08:58:33;7.30;99.90
680;DHT22;322;48.846;9.230;2023-11-18T09:01:03;7.30;99.90
680;DHT22;322;48.846;9.230;2023-11-18T09:03:41;7.30;99.90
680;DHT22;322;48.846;9.230;2023-11-18T09:06:15;7.40;99.90
680;DHT22;322;48.846;9.230;2023-11-18T09:08:47;7.40;99.90
680;DHT22;322;48.846;9.230;2023-11-18T09:11:22;7.50;99.90
680;DHT22;322;48.846;9.230;2023-11-18T09:13:51;7.50;99.90
680;DHT22;322;48.846;9.230;2023-11-18T09:16:22;7.60;99.90
680;DHT22;322;48.846;9.230;2023-11-18T09:18:52;7.70;99.90
680;DHT22;322;48.846;9.230;2023-11-18T09:21:20;7.70;99.90
680;DHT22;322;48.846;9.230;2023-11-18T09:23:52;7.80;99.90
680;DHT22;322;48.846;9.230;2023-11-18T09:26:22;8.10;99.90
680;DHT22;322;48.846;9.230;2023-11-18T09:28:52;8.30;99.90
680;DHT22;322;48.846;9.230;2023-11-18T09:31:21;8.50;99.90
680;DHT22;322;48.846;9.230;2023-11-18T09:33:49;8.80;99.90
680;DHT22;322;48.846;9.230;2023-11-18T09:36:20;9.10;99.90
680;DHT22;322;48.846;9.230;2023-11-18T09:38:49;9.40;99.90
680;DHT22;322;48.846;9.230;2023-11-18T09:41:17;9.50;99.90
680;DHT22;322;48.846;9.230;2023-11-18T09:43:47;9.60;99.90
680;DHT22;322;48.846;9.230;2023-11-18T09:46:22;9.70;99.90
680;DHT22;322;48.846;9.230;2023-11-18T09:48:52;9.70;99.90
680;DHT22;322;48.846;9.230;2023-11-18T09:51:28;9.60;99.90
680;DHT22;322;48.846;9.230;2023-11-18T09:53:59;9.70;99.90
680;DHT22;322;48.846;9.230;2023-11-18T09:56:31;9.70;99.90
680;DHT22;322;48.846;9.230;2023-11-18T09:59:11;9.70;99.90
680;DHT22;322;48.846;9.230;2023-11-18T10:01:43;9.90;99.90
680;DHT22;322;48.846;9.230;2023-11-18T10:04:13;10.00;99.90
680;DHT22;322;48.846;9.230;2023-11-18T10:06:46;10.20;99.90
680;DHT22;322;48.846;9.230;2023-11-18T10:09:15;10.30;99.90
680;DHT22;322;48.846;9.230;2023-11-18T10:11:44;10.10;99.90
680;DHT22;322;48.846;9.230;2023-11-18T10:14:16;10.20;99.90
680;DHT22;322;48.846;9.230;2023-11-18T10:16:44;10.30;99.90
680;DHT22;322;48.846;9.230;2023-11-18T10:19:16;10.40;99.90
680;DHT22;322;48.846;9.230;2023-11-18T10:21:45;10.30;99.90
680;DHT22;322;48.846;9.230;2023-11-18T10:24:16;10.20;99.90
680;DHT22;322;48.846;9.230;2023-11-18T10:26:54;10.10;99.90
680;DHT22;322;48.846;9.230;2023-11-18T10:29:26;10.30;99.90
680;DHT22;322;48.846;9.230;2023-11-18T10:32:05;10.50;99.90
680;DHT22;322;48.846;9.230;2023-11-18T10:34:43;10.60;99.90
680;DHT22;322;48.846;9.230;2023-11-18T10:37:13;10.60;99.90
680;DHT22;322;48.846;9.230;2023-11-18T10:39:46;10.60;99.90
680;DHT22;322;48.846;9.230;2023-11-18T10:42:14;10.50;99.90
680;DHT22;322;48.846;9.230;2023-11-18T10:44:58;10.50;99.90
680;DHT22;322;48.846;9.230;2023-11-18T10:47:31;10.40;99.90
680;DHT22;322;48.846;9.230;2023-11-18T10:50:00;10.50;99.90
680;DHT22;322;48.846;9.230;2023-11-18T10:52:28;10.60;99.90
680;DHT22;322;48.846;9.230;2023-11-18T10:55:01;10.60;99.90
680;DHT22;322;48.846;9.230;2023-11-18T10:57:38;10.60;99.90
680;DHT22;322;48.846;9.230;2023-11-18T11:00:11;10.50;99.90
680;DHT22;322;48.846;9.230;2023-11-18T11:02:42;10.50;99.90
680;DHT22;322;48.846;9.230;2023-11-18T11:05:10;10.40;99.90
680;DHT22;322;48.846;9.230;2023-11-18T11:07:48;10.30;99.90
680;DHT22;322;48.846;9.230;2023-11-18T11:10:17;10.30;99.90
680;DHT22;322;48.846;9.230;2023-11-18T11:12:54;10.40;99.90
680;DHT22;322;48.846;9.230;2023-11-18T11:15:29;10.40;99.90
680;DHT22;322;48.846;9.230;2023-11-18T11:18:20;10.50;99.90
680;DHT22;322;48.846;9.230;2023-11-18T11:20:59;10.60;99.90
680;DHT22;322;48.846;9.230;2023-11-18T11:23:37;10.50;99.90
680;DHT22;322;48.846;9.230;2023-11-18T11:26:19;10.40;99.90
680;DHT22;322;48.846;9.230;2023-11-18T11:28:54;10.40;99.90
680;DHT22;322;48.846;9.230;2023-11-18T11:31:30;10.50;99.90
680;DHT22;322;48.846;9.230;2023-11-18T11:34:02;10.60;99.90
680;DHT22;322;48.846;9.230;2023-11-18T11:36:37;10.60;99.90
680;DHT22;322;48.846;9.230;2023-11-18T11:39:08;10.70;99.90
680;DHT22;322;48.846;9.230;2023-11-18T11:41:46;10.70;99.90
680;DHT22;322;48.846;9.230;2023-11-18T11:44:14;10.80;99.90
680;DHT22;322;48.846;9.230;2023-11-18T11:46:44;10.80;99.90
680;DHT22;322;48.846;9.230;2023-11-18T11:49:20;10.70;99.90
680;DHT22;322;48.846;9.230;2023-11-18T11:52:00;10.70;99.90
680;DHT22;322;48.846;9.230;2023-11-18T11:54:35;10.70;99.90
680;DHT22;322;48.846;9.230;2023-11-18T11:57:05;10.80;99.90
680;DHT22;322;48.846;9.230;2023-11-18T11:59:54;10.90;99.90
680;DHT22;322;48.846;9.230;2023-11-18T12:02:25;10.80;99.90
680;DHT22;322;48.846;9.230;2023-11-18T12:04:56;10.80;99.90
680;DHT22;322;48.846;9.230;2023-11-18T12:07:26;10.80;99.90
680;DHT22;322;48.846;9.230;2023-11-18T12:09:58;10.70;99.90
680;DHT22;322;48.846;9.230;2023-11-18T12:12:27;10.60;99.90
680;DHT22;322;48.846;9.230;2023-11-18T12:14:58;10.70;99.90
680;DHT22;322;48.846;9.230;2023-11-18T12:18:12;10.70;99.90
680;DHT22;322;48.846;9.230;2023-11-18T12:20:41;10.80;99.90
680;DHT22;322;48.846;9.230;2023-11-18T12:23:14;10.70;99.90
680;DHT22;322;48.846;9.230;2023-11-18T12:25:43;10.60;99.90
680;DHT22;322;48.846;9.230;2023-11-18T12:28:15;10.60;99.90
680;DHT22;322;48.846;9.230;2023-11-18T12:30:45;10.40;99.90
680;DHT22;322;48.846;9.230;2023-11-18T12:34:01;10.30;99.90
680;DHT22;322;48.846;9.230;2023-11-18T12:37:03;10.30;99.90
680;DHT22;322;48.846;9.230;2023-11-18T12:42:58;10.50;99.90
680;DHT22;322;48.846;9.230;2023-11-18T12:45:43;10.30;99.90
680;DHT22;322;48.846;9.230;2023-11-18T12:48:14;10.20;99.90
680;DHT22;322;48.846;9.230;2023-11-18T12:50:44;10.10;99.90
680;DHT22;322;48.846;9.230;2023-11-18T12:53:13;10.00;99.90
680;DHT22;322;48.846;9.230;2023-11-18T12:55:42;9.90;99.90
680;DHT22;322;48.846;9.230;2023-11-18T12:58:11;9.90;99.90
680;DHT22;322;48.846;9.230;2023-11-18T13:00:40;9.80;99.90
680;DHT22;322;48.846;9.230;2023-11-18T13:03:09;9.90;99.90
680;DHT22;322;48.846;9.230;2023-11-18T13:05:43;9.80;99.90
680;DHT22;322;48.846;9.230;2023-11-18T13:08:13;9.70;99.90
680;DHT22;322;48.846;9.230;2023-11-18T13:10:42;9.70;99.90
680;DHT22;322;48.846;9.230;2023-11-18T13:13:11;9.60;99.90
680;DHT22;322;48.846;9.230;2023-11-18T13:15:41;9.40;99.90
680;DHT22;322;48.846;9.230;2023-11-18T13:18:09;9.40;99.90
680;DHT22;322;48.846;9.230;2023-11-18T13:20:39;9.30;99.90
680;DHT22;322;48.846;9.230;2023-11-18T13:23:10;9.30;99.90
680;DHT22;322;48.846;9.230;2023-11-18T13:25:39;9.30;99.90
680;DHT22;322;48.846;9.230;2023-11-18T13:28:08;9.30;99.90
680;DHT22;322;48.846;9.230;2023-11-18T13:30:37;9.20;99.90
680;DHT22;322;48.846;9.230;2023-11-18T13:33:07;9.20;99.90
680;DHT22;322;48.846;9.230;2023-11-18T13:35:35;9.30;99.90
680;DHT22;322;48.846;9.230;2023-11-18T13:38:04;9.30;99.90
680;DHT22;322;48.846;9.230;2023-11-18T13:40:43;9.20;99.90
680;DHT22;322;48.846;9.230;2023-11-18T13:43:11;9.20;99.90
680;DHT22;322;48.846;9.230;2023-11-18T13:45:40;9.20;99.90
680;DHT22;322;48.846;9.230;2023-11-18T13:48:11;9.20;99.90
680;DHT22;322;48.846;9.230;2023-11-18T13:50:41;9.20;99.90
680;DHT22;322;48.846;9.230;2023-11-18T13:53:09;9.20;99.90
680;DHT22;322;48.846;9.230;2023-11-18T13:55:43;9.20;99.90
680;DHT22;322;48.846;9.230;2023-11-18T13:58:15;9.10;99.90
680;DHT22;322;48.846;9.230;2023-11-18T14:00:43;9.20;99.90
680;DHT22;322;48.846;9.230;2023-11-18T14:03:12;9.30;99.90
680;DHT22;322;48.846;9.230;2023-11-18T14:05:42;9.30;99.90
680;DHT22;322;48.846;9.230;2023-11-18T14:08:17;9.40;99.90
680;DHT22;322;48.846;9.230;2023-11-18T14:10:48;9.30;99.90
680;DHT22;322;48.846;9.230;2023-11-18T14:13:29;9.40;99.90
680;DHT22;322;48.846;9.230;2023-11-18T14:15:58;9.50;99.90
680;DHT22;322;48.846;9.230;2023-11-18T14:18:26;9.40;99.90
680;DHT22;322;48.846;9.230;2023-11-18T14:20:54;9.40;99.90
680;DHT22;322;48.846;9.230;2023-11-18T14:23:22;9.40;99.90
680;DHT22;322;48.846;9.230;2023-11-18T14:25:53;9.40;99.90
680;DHT22;322;48.846;9.230;2023-11-18T14:28:21;9.40;99.90
680;DHT22;322;48.846;9.230;2023-11-18T14:30:53;9.50;99.90
680;DHT22;322;48.846;9.230;2023-11-18T14:33:21;9.30;99.90
680;DHT22;322;48.846;9.230;2023-11-18T14:35:49;9.20;99.90
680;DHT22;322;48.846;9.230;2023-11-18T14:38:17;9.30;99.90
680;DHT22;322;48.846;9.230;2023-11-18T14:40:46;9.20;99.90
680;DHT22;322;48.846;9.230;2023-11-18T14:43:16;9.00;99.90
680;DHT22;322;48.846;9.230;2023-11-18T14:45:45;9.00;99.90
680;DHT22;322;48.846;9.230;2023-11-18T14:48:13;8.90;99.90
680;DHT22;322;48.846;9.230;2023-11-18T14:50:41;8.90;99.90
680;DHT22;322;48.846;9.230;2023-11-18T14:53:10;8.90;99.90
680;DHT22;322;48.846;9.230;2023-11-18T14:55:38;8.80;99.90
680;DHT22;322;48.846;9.230;2023-11-18T14:58:06;8.80;99.90
680;DHT22;322;48.846;9.230;2023-11-18T15:00:35;8.70;99.90
680;DHT22;322;48.846;9.230;2023-11-18T15:03:03;8.70;99.90
680;DHT22;322;48.846;9.230;2023-11-18T15:05:33;8.60;99.90
680;DHT22;322;48.846;9.230;2023-11-18T15:08:01;8.60;99.90
680;DHT22;322;48.846;9.230;2023-11-18T15:10:30;8.60;99.90
680;DHT22;322;48.846;9.230;2023-11-18T15:12:58;8.60;99.90
680;DHT22;322;48.846;9.230;2023-11-18T15:15:30;8.60;99.90
680;DHT22;322;48.846;9.230;2023-11-18T15:18:04;8.60;99.90
680;DHT22;322;48.846;9.230;2023-11-18T15:20:36;8.60;99.90
680;DHT22;322;48.846;9.230;2023-11-18T15:23:04;8.50;99.90
680;DHT22;322;48.846;9.230;2023-11-18T15:25:32;8.50;99.90
680;DHT22;322;48.846;9.230;2023-11-18T15:28:01;8.50;99.90
680;DHT22;322;48.846;9.230;2023-11-18T15:30:30;8.40;99.90
680;DHT22;322;48.846;9.230;2023-11-18T15:32:59;8.30;99.90
680;DHT22;322;48.846;9.230;2023-11-18T15:35:30;8.40;99.90
680;DHT22;322;48.846;9.230;2023-11-18T15:37:58;8.30;99.90
680;DHT22;322;48.846;9.230;2023-11-18T15:40:26;8.40;99.90
680;DHT22;322;48.846;9.230;2023-11-18T15:42:55;8.30;99.90
680;DHT22;322;48.846;9.230;2023-11-18T15:45:23;8.30;99.90
680;DHT22;322;48.846;9.230;2023-11-18T15:47:53;8.30;99.90
680;DHT22;322;48.846;9.230;2023-11-18T15:50:21;8.30;99.90
680;DHT22;322;48.846;9.230;2023-11-18T15:52:51;8.30;99.90
680;DHT22;322;48.846;9.230;2023-11-18T15:55:20;8.30;99.90
680;DHT22;322;48.846;9.230;2023-11-18T15:57:49;8.30;99.90
680;DHT22;322;48.846;9.230;2023-11-18T16:00:20;8.30;99.90
680;DHT22;322;48.846;9.230;2023-11-18T16:02:53;8.20;99.90
680;DHT22;322;48.846;9.230;2023-11-18T16:05:28;8.20;99.90
680;DHT22;322;48.846;9.230;2023-11-18T16:08:03;8.30;99.90
680;DHT22;322;48.846;9.230;2023-11-18T16:10:34;8.20;99.90
680;DHT22;322;48.846;9.230;2023-11-18T16:13:04;8.20;99.90
680;DHT22;322;48.846;9.230;2023-11-18T16:15:33;8.20;99.90
680;DHT22;322;48.846;9.230;2023-11-18T16:18:03;8.20;99.90
680;DHT22;322;48.846;9.230;2023-11-18T16:20:32;8.20;99.90
680;DHT22;322;48.846;9.230;2023-11-18T16:23:02;8.20;99.90
680;DHT22;322;48.846;9.230;2023-11-18T16:25:32;8.10;99.90
680;DHT22;322;48.846;9.230;2023-11-18T16:28:02;8.10;99.90
680;DHT22;322;48.846;9.230;2023-11-18T16:30:31;8.10;99.90
680;DHT22;322;48.846;9.230;2023-11-18T16:33:00;8.00;99.90
680;DHT22;322;48.846;9.230;2023-11-18T16:35:30;8.00;99.90
680;DHT22;322;48.846;9.230;2023-11-18T16:37:58;8.00;99.90
680;DHT22;322;48.846;9.230;2023-11-18T16:40:29;8.00;99.90
680;DHT22;322;48.846;9.230;2023-11-18T16:42:59;8.00;99.90
680;DHT22;322;48.846;9.230;2023-11-18T16:45:28;8.10;99.90
680;DHT22;322;48.846;9.230;2023-11-18T16:47:56;8.10;99.90
680;DHT22;322;48.846;9.230;2023-11-18T16:50:25;8.10;99.90
680;DHT22;322;48.846;9.230;2023-11-18T16:52:54;8.10;99.90
680;DHT22;322;48.846;9.230;2023-11-18T16:55:23;8.10;99.90
680;DHT22;322;48.846;9.230;2023-11-18T16:57:53;8.10;99.90
680;DHT22;322;48.846;9.230;2023-11-18T17:00:22;8.10;99.90
680;DHT22;322;48.846;9.230;2023-11-18T17:02:52;8.00;99.90
680;DHT22;322;48.846;9.230;2023-11-18T17:05:24;8.00;99.90
680;DHT22;322;48.846;9.230;2023-11-18T17:07:53;8.10;99.90
680;DHT22;322;48.846;9.230;2023-11-18T17:10:21;8.10;99.90
680;DHT22;322;48.846;9.230;2023-11-18T17:12:50;8.10;99.90